sensor_id;sensor_type;location;lat;lon;timestamp;pressure;altitude;pressure_sealevel;temperature;humidity
59110;BME280;44895;47.438;18.978;2023-04-10T00:02:24;100822.34;;;2.87;100.00
59110;BME280;44895;47.438;18.978;2023-04-10T00:05:28;100812.38;;;2.94;100.00
59110;BME280;44895;47.438;18.978;2023-04-10T00:08:31;100819.44;;;2.88;100.00
59110;BME280;44895;47.438;18.978;2023-04-10T00:11:35;100814.53;;;2.85;100.00
59110;BME280;44895;47.438;18.978;2023-04-10T00:14:39;100799.28;;;2.98;100.00
59110;BME280;44895;47.438;18.978;2023-04-10T00:17:42;100802.91;;;2.73;100.00
59110;BME280;44895;47.438;18.978;2023-04-10T00:20:46;100792.19;;;2.91;100.00
59110;BME280;44895;47.438;18.978;2023-04-10T00:23:50;100797.06;;;2.76;100.00
59110;BME280;44895;47.438;18.978;2023-04-10T00:26:54;100795.53;;;2.87;100.00
59110;BME280;44895;47.438;18.978;2023-04-10T00:29:59;100801.31;;;2.84;100.00
59110;BME280;44895;47.438;18.978;2023-04-10T00:33:05;100804.25;;;2.64;100.00
59110;BME280;44895;47.438;18.978;2023-04-10T00:36:08;100805.59;;;2.73;100.00
59110;BME280;44895;47.438;18.978;2023-04-10T00:39:12;100800.34;;;2.41;100.00
59110;BME280;44895;47.438;18.978;2023-04-10T00:42:17;100793.00;;;2.55;100.00
59110;BME280;44895;47.438;18.978;2023-04-10T00:45:21;100795.72;;;2.48;100.00
59110;BME280;44895;47.438;18.978;2023-04-10T00:48:25;100795.00;;;2.59;100.00
59110;BME280;44895;47.438;18.978;2023-04-10T00:51:29;100790.31;;;2.55;100.00
59110;BME280;44895;47.438;18.978;2023-04-10T00:54:34;100789.97;;;2.26;100.00
59110;BME280;44895;47.438;18.978;2023-04-10T00:57:43;100789.06;;;2.57;100.00
59110;BME280;44895;47.438;18.978;2023-04-10T01:00:47;100781.19;;;2.56;100.00
59110;BME280;44895;47.438;18.978;2023-04-10T01:03:52;100785.31;;;2.40;100.00
59110;BME280;44895;47.438;18.978;2023-04-10T01:07:25;100784.25;;;2.59;100.00
59110;BME280;44895;47.438;18.978;2023-04-10T01:10:39;100788.06;;;2.52;100.00
59110;BME280;44895;47.438;18.978;2023-04-10T01:17:24;100776.97;;;2.48;100.00
59110;BME280;44895;47.438;18.978;2023-04-10T01:20:33;100777.34;;;2.52;100.00
59110;BME280;44895;47.438;18.978;2023-04-10T01:27:11;100783.75;;;2.51;100.00
59110;BME280;44895;47.438;18.978;2023-04-10T01:30:24;100783.53;;;2.52;100.00
59110;BME280;44895;47.438;18.978;2023-04-10T01:33:34;100775.84;;;2.37;100.00
59110;BME280;44895;47.438;18.978;2023-04-10T01:36:57;100772.59;;;2.54;100.00
59110;BME280;44895;47.438;18.978;2023-04-10T01:40:04;100771.91;;;2.58;100.00
59110;BME280;44895;47.438;18.978;2023-04-10T01:43:11;100769.31;;;2.70;100.00
59110;BME280;44895;47.438;18.978;2023-04-10T01:46:24;100763.41;;;2.61;100.00
59110;BME280;44895;47.438;18.978;2023-04-10T01:49:29;100775.69;;;2.51;100.00
59110;BME280;44895;47.438;18.978;2023-04-10T01:52:39;100775.69;;;2.51;100.00
59110;BME280;44895;47.438;18.978;2023-04-10T01:56:04;100763.56;;;2.48;100.00
59110;BME280;44895;47.438;18.978;2023-04-10T01:59:16;100775.25;;;2.54;100.00
59110;BME280;44895;47.438;18.978;2023-04-10T02:02:19;100770.47;;;2.56;100.00
59110;BME280;44895;47.438;18.978;2023-04-10T02:05:29;100765.06;;;2.63;100.00
59110;BME280;44895;47.438;18.978;2023-04-10T02:08:54;100767.59;;;2.57;100.00
59110;BME280;44895;47.438;18.978;2023-04-10T02:12:06;100780.03;;;2.52;100.00
59110;BME280;44895;47.438;18.978;2023-04-10T02:15:11;100771.97;;;2.52;100.00
59110;BME280;44895;47.438;18.978;2023-04-10T02:18:15;100765.19;;;2.49;100.00
59110;BME280;44895;47.438;18.978;2023-04-10T02:21:21;100772.47;;;2.42;100.00
59110;BME280;44895;47.438;18.978;2023-04-10T02:24:25;100782.84;;;2.38;100.00
59110;BME280;44895;47.438;18.978;2023-04-10T02:27:34;100775.41;;;2.40;100.00
59110;BME280;44895;47.438;18.978;2023-04-10T02:30:38;100780.22;;;2.32;100.00
59110;BME280;44895;47.438;18.978;2023-04-10T02:33:42;100768.81;;;2.18;100.00
59110;BME280;44895;47.438;18.978;2023-04-10T02:36:46;100772.72;;;2.22;100.00
59110;BME280;44895;47.438;18.978;2023-04-10T02:39:49;100754.81;;;2.34;100.00
59110;BME280;44895;47.438;18.978;2023-04-10T02:42:53;100760.88;;;2.30;100.00
59110;BME280;44895;47.438;18.978;2023-04-10T02:45:58;100762.72;;;2.10;100.00
59110;BME280;44895;47.438;18.978;2023-04-10T02:49:05;100752.19;;;2.09;100.00
59110;BME280;44895;47.438;18.978;2023-04-10T02:52:09;100753.59;;;2.11;100.00
59110;BME280;44895;47.438;18.978;2023-04-10T02:55:12;100751.47;;;2.20;100.00
59110;BME280;44895;47.438;18.978;2023-04-10T02:58:17;100751.22;;;2.03;100.00
59110;BME280;44895;47.438;18.978;2023-04-10T03:01:21;100753.53;;;2.00;100.00
59110;BME280;44895;47.438;18.978;2023-04-10T03:04:26;100751.50;;;1.95;100.00
59110;BME280;44895;47.438;18.978;2023-04-10T03:07:31;100754.25;;;1.88;100.00
59110;BME280;44895;47.438;18.978;2023-04-10T03:10:36;100752.44;;;1.82;100.00
59110;BME280;44895;47.438;18.978;2023-04-10T03:13:40;100752.00;;;1.85;100.00
59110;BME280;44895;47.438;18.978;2023-04-10T03:16:44;100748.81;;;1.70;100.00
59110;BME280;44895;47.438;18.978;2023-04-10T03:19:47;100753.75;;;1.73;100.00
59110;BME280;44895;47.438;18.978;2023-04-10T03:22:51;100751.69;;;1.75;100.00
59110;BME280;44895;47.438;18.978;2023-04-10T03:25:56;100751.84;;;1.80;100.00
59110;BME280;44895;47.438;18.978;2023-04-10T03:29:03;100745.63;;;1.86;100.00
59110;BME280;44895;47.438;18.978;2023-04-10T03:32:07;100745.09;;;1.96;100.00
59110;BME280;44895;47.438;18.978;2023-04-10T03:35:11;100749.91;;;1.87;100.00
59110;BME280;44895;47.438;18.978;2023-04-10T03:38:15;100751.56;;;1.88;100.00
59110;BME280;44895;47.438;18.978;2023-04-10T03:41:19;100746.09;;;1.76;100.00
59110;BME280;44895;47.438;18.978;2023-04-10T03:44:23;100753.75;;;1.73;100.00
59110;BME280;44895;47.438;18.978;2023-04-10T03:47:27;100752.72;;;1.74;100.00
59110;BME280;44895;47.438;18.978;2023-04-10T03:50:31;100748.63;;;1.71;100.00
59110;BME280;44895;47.438;18.978;2023-04-10T03:53:37;100752.94;;;1.72;100.00
59110;BME280;44895;47.438;18.978;2023-04-10T03:56:45;100756.53;;;1.85;100.00
59110;BME280;44895;47.438;18.978;2023-04-10T03:59:49;100762.50;;;1.87;100.00
59110;BME280;44895;47.438;18.978;2023-04-10T04:02:54;100769.88;;;1.91;100.00
59110;BME280;44895;47.438;18.978;2023-04-10T04:06:28;100762.34;;;1.82;100.00
59110;BME280;44895;47.438;18.978;2023-04-10T04:09:44;100762.19;;;1.76;100.00
59110;BME280;44895;47.438;18.978;2023-04-10T04:13:11;100762.56;;;1.80;100.00
59110;BME280;44895;47.438;18.978;2023-04-10T04:16:41;100772.06;;;1.76;100.00
59110;BME280;44895;47.438;18.978;2023-04-10T04:20:05;100770.22;;;1.76;100.00
59110;BME280;44895;47.438;18.978;2023-04-10T04:23:26;100770.00;;;1.78;100.00
59110;BME280;44895;47.438;18.978;2023-04-10T04:27:06;100780.09;;;1.76;100.00
59110;BME280;44895;47.438;18.978;2023-04-10T04:30:30;100772.81;;;1.83;100.00
59110;BME280;44895;47.438;18.978;2023-04-10T04:33:56;100771.34;;;1.87;100.00
59110;BME280;44895;47.438;18.978;2023-04-10T04:37:31;100777.25;;;1.96;100.00
59110;BME280;44895;47.438;18.978;2023-04-10T04:41:13;100782.03;;;1.94;100.00
59110;BME280;44895;47.438;18.978;2023-04-10T04:44:39;100775.13;;;2.05;100.00
59110;BME280;44895;47.438;18.978;2023-04-10T04:48:01;100789.16;;;2.25;100.00
59110;BME280;44895;47.438;18.978;2023-04-10T04:51:28;100787.94;;;2.21;100.00
59110;BME280;44895;47.438;18.978;2023-04-10T04:54:44;100789.72;;;2.09;100.00
59110;BME280;44895;47.438;18.978;2023-04-10T04:58:00;100790.91;;;2.57;100.00
59110;BME280;44895;47.438;18.978;2023-04-10T05:01:29;100788.44;;;2.55;100.00
59110;BME280;44895;47.438;18.978;2023-04-10T05:04:51;100792.59;;;2.70;100.00
59110;BME280;44895;47.438;18.978;2023-04-10T05:08:13;100799.25;;;2.86;100.00
59110;BME280;44895;47.438;18.978;2023-04-10T05:11:23;100808.56;;;3.02;100.00
59110;BME280;44895;47.438;18.978;2023-04-10T05:14:50;100811.41;;;3.37;100.00
59110;BME280;44895;47.438;18.978;2023-04-10T05:18:14;100808.06;;;3.54;100.00
59110;BME280;44895;47.438;18.978;2023-04-10T05:21:45;100804.53;;;3.41;100.00
59110;BME280;44895;47.438;18.978;2023-04-10T05:25:18;100800.88;;;3.78;100.00
59110;BME280;44895;47.438;18.978;2023-04-10T05:28:47;100798.13;;;3.97;100.00
59110;BME280;44895;47.438;18.978;2023-04-10T05:32:17;100806.56;;;4.36;100.00
59110;BME280;44895;47.438;18.978;2023-04-10T05:35:47;100805.59;;;4.54;100.00
59110;BME280;44895;47.438;18.978;2023-04-10T05:39:10;100808.38;;;4.83;100.00
59110;BME280;44895;47.438;18.978;2023-04-10T05:42:49;100815.16;;;5.26;100.00
59110;BME280;44895;47.438;18.978;2023-04-10T05:46:14;100804.31;;;5.38;100.00
59110;BME280;44895;47.438;18.978;2023-04-10T05:49:36;100800.06;;;5.88;100.00
59110;BME280;44895;47.438;18.978;2023-04-10T05:52:58;100804.34;;;6.01;100.00
59110;BME280;44895;47.438;18.978;2023-04-10T05:56:18;100801.56;;;6.30;100.00
59110;BME280;44895;47.438;18.978;2023-04-10T05:59:33;100797.56;;;6.55;100.00
59110;BME280;44895;47.438;18.978;2023-04-10T06:02:54;100797.41;;;6.83;100.00
59110;BME280;44895;47.438;18.978;2023-04-10T06:06:02;100799.22;;;7.00;100.00
59110;BME280;44895;47.438;18.978;2023-04-10T06:09:07;100801.78;;;7.12;100.00
59110;BME280;44895;47.438;18.978;2023-04-10T06:12:11;100798.09;;;7.45;100.00
59110;BME280;44895;47.438;18.978;2023-04-10T06:15:17;100798.91;;;7.73;100.00
59110;BME280;44895;47.438;18.978;2023-04-10T06:18:20;100798.38;;;8.09;100.00
59110;BME280;44895;47.438;18.978;2023-04-10T06:21:25;100793.59;;;8.64;100.00
59110;BME280;44895;47.438;18.978;2023-04-10T06:24:29;100795.91;;;8.98;100.00
59110;BME280;44895;47.438;18.978;2023-04-10T06:27:33;100789.50;;;10.33;100.00
59110;BME280;44895;47.438;18.978;2023-04-10T06:30:44;100780.84;;;14.50;100.00
59110;BME280;44895;47.438;18.978;2023-04-10T06:33:48;100761.69;;;17.70;100.00
59110;BME280;44895;47.438;18.978;2023-04-10T06:36:52;100777.97;;;19.09;71.79
59110;BME280;44895;47.438;18.978;2023-04-10T06:43:06;100765.69;;;21.55;55.24
59110;BME280;44895;47.438;18.978;2023-04-10T06:46:14;100771.28;;;23.19;49.13
59110;BME280;44895;47.438;18.978;2023-04-10T06:49:18;100769.00;;;23.64;45.97
59110;BME280;44895;47.438;18.978;2023-04-10T06:52:22;100769.41;;;24.51;43.69
59110;BME280;44895;47.438;18.978;2023-04-10T06:55:26;100762.56;;;24.99;41.63
59110;BME280;44895;47.438;18.978;2023-04-10T06:58:30;100759.66;;;25.49;41.52
59110;BME280;44895;47.438;18.978;2023-04-10T07:01:33;100757.09;;;26.08;40.12
59110;BME280;44895;47.438;18.978;2023-04-10T07:04:37;100756.97;;;25.97;38.82
59110;BME280;44895;47.438;18.978;2023-04-10T07:07:41;100759.72;;;26.38;38.27
59110;BME280;44895;47.438;18.978;2023-04-10T07:10:45;100763.16;;;25.80;36.63
59110;BME280;44895;47.438;18.978;2023-04-10T07:13:49;100751.94;;;25.04;36.66
59110;BME280;44895;47.438;18.978;2023-04-10T07:16:55;100763.00;;;25.65;38.63
59110;BME280;44895;47.438;18.978;2023-04-10T07:19:59;100767.34;;;24.48;39.52
59110;BME280;44895;47.438;18.978;2023-04-10T07:23:03;100756.97;;;23.75;38.44
59110;BME280;44895;47.438;18.978;2023-04-10T07:26:07;100753.84;;;23.77;38.37
59110;BME280;44895;47.438;18.978;2023-04-10T07:29:11;100751.66;;;24.59;37.85
59110;BME280;44895;47.438;18.978;2023-04-10T07:32:14;100748.69;;;25.63;37.26
59110;BME280;44895;47.438;18.978;2023-04-10T07:35:18;100750.34;;;24.26;38.15
59110;BME280;44895;47.438;18.978;2023-04-10T07:38:23;100754.13;;;23.91;38.34
59110;BME280;44895;47.438;18.978;2023-04-10T07:41:27;100742.03;;;26.13;36.04
59110;BME280;44895;47.438;18.978;2023-04-10T07:44:31;100738.13;;;27.83;33.73
59110;BME280;44895;47.438;18.978;2023-04-10T07:47:34;100736.16;;;28.67;32.65
59110;BME280;44895;47.438;18.978;2023-04-10T07:50:38;100733.19;;;26.56;34.69
59110;BME280;44895;47.438;18.978;2023-04-10T07:53:42;100736.00;;;25.01;36.28
59110;BME280;44895;47.438;18.978;2023-04-10T07:56:46;100732.88;;;23.99;38.08
59110;BME280;44895;47.438;18.978;2023-04-10T07:59:49;100734.03;;;22.13;39.95
59110;BME280;44895;47.438;18.978;2023-04-10T08:02:53;100738.66;;;20.09;42.48
59110;BME280;44895;47.438;18.978;2023-04-10T08:05:56;100723.47;;;21.87;41.02
59110;BME280;44895;47.438;18.978;2023-04-10T08:09:00;100706.00;;;24.84;37.38
59110;BME280;44895;47.438;18.978;2023-04-10T08:12:04;100714.22;;;25.03;36.92
59110;BME280;44895;47.438;18.978;2023-04-10T08:15:08;100717.03;;;24.00;37.64
59110;BME280;44895;47.438;18.978;2023-04-10T08:18:12;100722.72;;;25.18;36.20
59110;BME280;44895;47.438;18.978;2023-04-10T08:21:16;100712.16;;;27.50;31.56
59110;BME280;44895;47.438;18.978;2023-04-10T08:24:19;100709.47;;;26.20;33.82
59110;BME280;44895;47.438;18.978;2023-04-10T08:27:25;100709.63;;;24.61;34.10
59110;BME280;44895;47.438;18.978;2023-04-10T08:30:28;100730.41;;;24.44;35.55
59110;BME280;44895;47.438;18.978;2023-04-10T08:33:32;100718.75;;;22.19;37.04
59110;BME280;44895;47.438;18.978;2023-04-10T08:36:35;100716.53;;;21.08;37.84
59110;BME280;44895;47.438;18.978;2023-04-10T08:39:39;100716.97;;;20.69;41.05
59110;BME280;44895;47.438;18.978;2023-04-10T08:42:43;100713.28;;;21.59;38.25
59110;BME280;44895;47.438;18.978;2023-04-10T08:45:47;100705.59;;;20.71;37.57
59110;BME280;44895;47.438;18.978;2023-04-10T08:49:00;100711.66;;;19.90;36.46
59110;BME280;44895;47.438;18.978;2023-04-10T08:52:13;100705.81;;;20.16;38.89
59110;BME280;44895;47.438;18.978;2023-04-10T08:55:17;100711.22;;;20.12;39.52
59110;BME280;44895;47.438;18.978;2023-04-10T08:58:23;100705.47;;;20.05;39.63
59110;BME280;44895;47.438;18.978;2023-04-10T09:01:27;100704.66;;;20.66;39.43
59110;BME280;44895;47.438;18.978;2023-04-10T09:04:31;100699.56;;;20.93;38.20
59110;BME280;44895;47.438;18.978;2023-04-10T09:07:35;100701.28;;;21.55;37.89
59110;BME280;44895;47.438;18.978;2023-04-10T09:10:39;100698.69;;;21.46;37.62
59110;BME280;44895;47.438;18.978;2023-04-10T09:13:43;100687.75;;;20.68;37.61
59110;BME280;44895;47.438;18.978;2023-04-10T09:16:47;100689.41;;;20.32;38.29
59110;BME280;44895;47.438;18.978;2023-04-10T09:19:52;100665.34;;;19.37;41.62
59110;BME280;44895;47.438;18.978;2023-04-10T09:22:57;100696.72;;;19.45;42.94
59110;BME280;44895;47.438;18.978;2023-04-10T09:26:04;100689.16;;;19.54;42.54
59110;BME280;44895;47.438;18.978;2023-04-10T09:29:07;100689.94;;;19.54;43.66
59110;BME280;44895;47.438;18.978;2023-04-10T09:32:37;100688.00;;;19.21;43.98
59110;BME280;44895;47.438;18.978;2023-04-10T09:35:41;100691.06;;;18.56;45.81
59110;BME280;44895;47.438;18.978;2023-04-10T09:38:50;100676.78;;;18.84;44.51
59110;BME280;44895;47.438;18.978;2023-04-10T09:41:54;100677.78;;;18.80;44.89
59110;BME280;44895;47.438;18.978;2023-04-10T09:44:58;100678.50;;;18.17;44.68
59110;BME280;44895;47.438;18.978;2023-04-10T09:48:06;100672.22;;;18.07;45.67
59110;BME280;44895;47.438;18.978;2023-04-10T09:51:30;100674.47;;;18.14;46.29
59110;BME280;44895;47.438;18.978;2023-04-10T09:54:35;100669.91;;;18.18;45.01
59110;BME280;44895;47.438;18.978;2023-04-10T09:57:40;100665.97;;;17.98;44.01
59110;BME280;44895;47.438;18.978;2023-04-10T10:00:46;100656.91;;;18.57;43.49
59110;BME280;44895;47.438;18.978;2023-04-10T10:03:50;100658.97;;;18.61;43.98
59110;BME280;44895;47.438;18.978;2023-04-10T10:06:55;100656.97;;;17.80;45.62
59110;BME280;44895;47.438;18.978;2023-04-10T10:09:59;100654.22;;;17.71;45.95
59110;BME280;44895;47.438;18.978;2023-04-10T10:13:07;100653.78;;;17.60;46.05
59110;BME280;44895;47.438;18.978;2023-04-10T10:16:36;100655.09;;;18.11;44.89
59110;BME280;44895;47.438;18.978;2023-04-10T10:22:54;100657.41;;;17.82;44.42
59110;BME280;44895;47.438;18.978;2023-04-10T10:25:59;100646.31;;;17.79;43.82
59110;BME280;44895;47.438;18.978;2023-04-10T10:29:08;100641.41;;;17.37;43.23
59110;BME280;44895;47.438;18.978;2023-04-10T10:32:14;100645.44;;;17.39;44.15
59110;BME280;44895;47.438;18.978;2023-04-10T10:35:20;100641.28;;;16.98;45.66
59110;BME280;44895;47.438;18.978;2023-04-10T10:38:24;100638.16;;;16.82;44.01
59110;BME280;44895;47.438;18.978;2023-04-10T10:41:38;100651.41;;;16.62;44.47
59110;BME280;44895;47.438;18.978;2023-04-10T10:45:02;100643.03;;;16.76;44.08
59110;BME280;44895;47.438;18.978;2023-04-10T10:48:08;100652.22;;;16.72;46.54
59110;BME280;44895;47.438;18.978;2023-04-10T10:51:13;100641.09;;;16.86;47.19
59110;BME280;44895;47.438;18.978;2023-04-10T10:54:30;100641.22;;;16.63;48.87
59110;BME280;44895;47.438;18.978;2023-04-10T10:57:44;100641.47;;;16.26;49.77
59110;BME280;44895;47.438;18.978;2023-04-10T11:03:52;100636.94;;;16.13;50.26
59110;BME280;44895;47.438;18.978;2023-04-10T11:06:57;100648.03;;;15.99;51.09
59110;BME280;44895;47.438;18.978;2023-04-10T11:10:01;100641.09;;;16.02;50.16
59110;BME280;44895;47.438;18.978;2023-04-10T11:13:15;100634.34;;;16.08;49.68
59110;BME280;44895;47.438;18.978;2023-04-10T11:19:56;100633.69;;;15.71;50.17
59110;BME280;44895;47.438;18.978;2023-04-10T11:23:09;100632.22;;;15.64;50.44
59110;BME280;44895;47.438;18.978;2023-04-10T11:29:37;100630.63;;;15.41;51.13
59110;BME280;44895;47.438;18.978;2023-04-10T11:32:41;100612.88;;;15.61;51.35
59110;BME280;44895;47.438;18.978;2023-04-10T11:35:45;100613.44;;;15.80;51.26
59110;BME280;44895;47.438;18.978;2023-04-10T11:38:56;100615.84;;;15.19;52.23
59110;BME280;44895;47.438;18.978;2023-04-10T11:41:59;100623.66;;;15.35;53.57
59110;BME280;44895;47.438;18.978;2023-04-10T11:48:27;100628.66;;;15.10;53.66
59110;BME280;44895;47.438;18.978;2023-04-10T11:51:32;100623.81;;;15.29;52.85
59110;BME280;44895;47.438;18.978;2023-04-10T11:54:36;100619.91;;;15.53;53.71
59110;BME280;44895;47.438;18.978;2023-04-10T11:57:39;100623.97;;;15.56;52.98
59110;BME280;44895;47.438;18.978;2023-04-10T12:00:43;100620.81;;;15.40;52.64
59110;BME280;44895;47.438;18.978;2023-04-10T12:03:47;100616.78;;;15.69;54.01
59110;BME280;44895;47.438;18.978;2023-04-10T12:06:52;100619.84;;;15.67;53.18
59110;BME280;44895;47.438;18.978;2023-04-10T12:09:57;100608.69;;;15.63;52.59
59110;BME280;44895;47.438;18.978;2023-04-10T12:13:00;100612.91;;;15.70;52.20
59110;BME280;44895;47.438;18.978;2023-04-10T12:16:08;100611.50;;;15.81;52.74
59110;BME280;44895;47.438;18.978;2023-04-10T12:19:13;100617.38;;;15.65;53.76
59110;BME280;44895;47.438;18.978;2023-04-10T12:22:19;100612.47;;;15.22;58.64
59110;BME280;44895;47.438;18.978;2023-04-10T12:25:23;100605.28;;;15.58;63.37
59110;BME280;44895;47.438;18.978;2023-04-10T12:28:27;100606.28;;;15.62;62.47
59110;BME280;44895;47.438;18.978;2023-04-10T12:31:34;100594.38;;;15.66;60.45
59110;BME280;44895;47.438;18.978;2023-04-10T12:34:38;100597.06;;;15.26;61.75
59110;BME280;44895;47.438;18.978;2023-04-10T12:37:51;100593.06;;;15.01;61.34
59110;BME280;44895;47.438;18.978;2023-04-10T12:40:58;100581.78;;;14.80;58.60
59110;BME280;44895;47.438;18.978;2023-04-10T12:44:07;100579.47;;;14.96;59.13
59110;BME280;44895;47.438;18.978;2023-04-10T12:47:11;100574.06;;;14.82;59.06
59110;BME280;44895;47.438;18.978;2023-04-10T12:50:16;100570.97;;;14.75;59.21
59110;BME280;44895;47.438;18.978;2023-04-10T12:53:20;100569.97;;;14.93;59.45
59110;BME280;44895;47.438;18.978;2023-04-10T12:56:23;100565.25;;;15.08;59.77
59110;BME280;44895;47.438;18.978;2023-04-10T12:59:28;100556.66;;;15.23;58.88
59110;BME280;44895;47.438;18.978;2023-04-10T13:02:32;100542.13;;;15.14;58.94
59110;BME280;44895;47.438;18.978;2023-04-10T13:05:36;100544.84;;;15.14;59.60
59110;BME280;44895;47.438;18.978;2023-04-10T13:08:39;100545.09;;;15.35;58.13
59110;BME280;44895;47.438;18.978;2023-04-10T13:11:43;100532.34;;;15.53;58.45
59110;BME280;44895;47.438;18.978;2023-04-10T13:14:47;100536.66;;;15.54;58.24
59110;BME280;44895;47.438;18.978;2023-04-10T13:17:51;100524.63;;;14.92;56.01
59110;BME280;44895;47.438;18.978;2023-04-10T13:20:54;100517.19;;;15.15;56.94
59110;BME280;44895;47.438;18.978;2023-04-10T13:23:58;100514.69;;;15.28;57.37
59110;BME280;44895;47.438;18.978;2023-04-10T13:27:01;100506.69;;;15.49;57.02
59110;BME280;44895;47.438;18.978;2023-04-10T13:30:06;100496.81;;;15.71;57.45
59110;BME280;44895;47.438;18.978;2023-04-10T13:33:10;100497.09;;;15.69;57.68
59110;BME280;44895;47.438;18.978;2023-04-10T13:36:13;100500.84;;;15.73;57.16
59110;BME280;44895;47.438;18.978;2023-04-10T13:39:17;100490.84;;;15.77;55.74
59110;BME280;44895;47.438;18.978;2023-04-10T13:42:21;100488.09;;;15.69;57.03
59110;BME280;44895;47.438;18.978;2023-04-10T13:45:25;100480.50;;;15.65;56.74
59110;BME280;44895;47.438;18.978;2023-04-10T13:48:29;100481.38;;;15.35;55.73
59110;BME280;44895;47.438;18.978;2023-04-10T13:51:33;100470.75;;;15.33;55.93
59110;BME280;44895;47.438;18.978;2023-04-10T13:54:37;100470.44;;;15.35;56.94
59110;BME280;44895;47.438;18.978;2023-04-10T13:57:41;100481.25;;;15.48;58.75
59110;BME280;44895;47.438;18.978;2023-04-10T14:00:45;100464.78;;;15.31;58.97
59110;BME280;44895;47.438;18.978;2023-04-10T14:03:48;100468.66;;;14.98;57.63
59110;BME280;44895;47.438;18.978;2023-04-10T14:06:52;100452.97;;;15.13;58.35
59110;BME280;44895;47.438;18.978;2023-04-10T14:10:00;100452.31;;;15.16;58.99
59110;BME280;44895;47.438;18.978;2023-04-10T14:13:05;100440.91;;;15.14;60.43
59110;BME280;44895;47.438;18.978;2023-04-10T14:16:09;100439.00;;;15.23;59.17
59110;BME280;44895;47.438;18.978;2023-04-10T14:19:14;100434.75;;;15.08;58.97
59110;BME280;44895;47.438;18.978;2023-04-10T14:22:18;100427.69;;;14.76;56.99
59110;BME280;44895;47.438;18.978;2023-04-10T14:25:22;100428.63;;;15.03;56.60
59110;BME280;44895;47.438;18.978;2023-04-10T14:28:26;100420.34;;;14.85;57.04
59110;BME280;44895;47.438;18.978;2023-04-10T14:31:29;100417.59;;;14.85;58.19
59110;BME280;44895;47.438;18.978;2023-04-10T14:34:33;100403.63;;;14.87;57.35
59110;BME280;44895;47.438;18.978;2023-04-10T14:37:37;100404.31;;;14.92;57.53
59110;BME280;44895;47.438;18.978;2023-04-10T14:40:41;100402.06;;;15.03;57.42
59110;BME280;44895;47.438;18.978;2023-04-10T14:43:44;100399.34;;;15.03;57.60
59110;BME280;44895;47.438;18.978;2023-04-10T14:46:48;100396.38;;;14.91;57.61
59110;BME280;44895;47.438;18.978;2023-04-10T14:49:52;100386.41;;;14.86;57.33
59110;BME280;44895;47.438;18.978;2023-04-10T14:52:56;100394.44;;;14.82;56.47
59110;BME280;44895;47.438;18.978;2023-04-10T14:56:09;100389.44;;;14.76;57.38
59110;BME280;44895;47.438;18.978;2023-04-10T14:59:14;100387.03;;;14.83;56.73
59110;BME280;44895;47.438;18.978;2023-04-10T15:02:18;100382.53;;;14.78;57.18
59110;BME280;44895;47.438;18.978;2023-04-10T15:05:22;100382.81;;;14.77;57.48
59110;BME280;44895;47.438;18.978;2023-04-10T15:08:26;100378.94;;;14.69;57.09
59110;BME280;44895;47.438;18.978;2023-04-10T15:11:30;100376.69;;;14.48;56.79
59110;BME280;44895;47.438;18.978;2023-04-10T15:14:34;100369.81;;;14.51;60.74
59110;BME280;44895;47.438;18.978;2023-04-10T15:17:38;100367.06;;;14.51;58.98
59110;BME280;44895;47.438;18.978;2023-04-10T15:20:42;100372.84;;;14.49;58.24
59110;BME280;44895;47.438;18.978;2023-04-10T15:23:46;100357.13;;;14.55;58.31
59110;BME280;44895;47.438;18.978;2023-04-10T15:26:50;100357.63;;;14.57;59.39
59110;BME280;44895;47.438;18.978;2023-04-10T15:29:55;100343.97;;;14.57;57.52
59110;BME280;44895;47.438;18.978;2023-04-10T15:32:59;100343.81;;;14.62;58.68
59110;BME280;44895;47.438;18.978;2023-04-10T15:36:03;100331.28;;;14.61;56.97
59110;BME280;44895;47.438;18.978;2023-04-10T15:39:07;100339.34;;;14.66;57.09
59110;BME280;44895;47.438;18.978;2023-04-10T15:42:11;100337.25;;;14.63;59.06
59110;BME280;44895;47.438;18.978;2023-04-10T15:45:15;100334.22;;;14.65;58.13
59110;BME280;44895;47.438;18.978;2023-04-10T15:48:19;100326.97;;;14.69;58.25
59110;BME280;44895;47.438;18.978;2023-04-10T15:51:24;100334.41;;;14.68;58.48
59110;BME280;44895;47.438;18.978;2023-04-10T15:54:29;100329.59;;;14.51;59.01
59110;BME280;44895;47.438;18.978;2023-04-10T15:57:33;100318.94;;;14.41;58.70
59110;BME280;44895;47.438;18.978;2023-04-10T16:00:37;100318.66;;;14.43;57.82
59110;BME280;44895;47.438;18.978;2023-04-10T16:03:40;100316.09;;;14.46;57.84
59110;BME280;44895;47.438;18.978;2023-04-10T16:06:44;100312.41;;;14.51;58.37
59110;BME280;44895;47.438;18.978;2023-04-10T16:09:48;100310.31;;;14.48;59.99
59110;BME280;44895;47.438;18.978;2023-04-10T16:12:54;100313.50;;;14.41;59.75
59110;BME280;44895;47.438;18.978;2023-04-10T16:16:06;100303.47;;;14.28;58.17
59110;BME280;44895;47.438;18.978;2023-04-10T16:19:11;100308.03;;;14.41;57.74
59110;BME280;44895;47.438;18.978;2023-04-10T16:22:15;100303.56;;;14.45;59.01
59110;BME280;44895;47.438;18.978;2023-04-10T16:25:20;100307.41;;;14.44;57.87
59110;BME280;44895;47.438;18.978;2023-04-10T16:28:23;100310.88;;;14.36;57.87
59110;BME280;44895;47.438;18.978;2023-04-10T16:31:28;100307.09;;;14.46;57.57
59110;BME280;44895;47.438;18.978;2023-04-10T16:34:33;100305.75;;;14.34;57.40
59110;BME280;44895;47.438;18.978;2023-04-10T16:37:36;100304.59;;;14.27;57.31